Time;durP1;ratioP1;P1;durP2;ratioP2;P2;SDS_P1;SDS_P2;PMS_P1;PMS_P2;Temp;Humidity;BMP_temperature;BMP_pressure;BME280_temperature;BME280_humidity;BME280_pressure;Samples;Min_cycle;Max_cycle;Signal;HPM_P1;HPM_P2
2021/05/28 00:01:46;;;;;;;2.60;2.10;;;;;;;;;;5072143;28;20301;-62
2021/05/28 00:04:12;;;;;;;5.77;2.13;;;;;;;;;;5089979;28;20266;-62
2021/05/28 00:06:38;;;;;;;2.80;2.03;;;;;;;;;;5089523;28;20201;-62
2021/05/28 00:09:05;;;;;;;3.27;2.20;;;;;;;;;;5088185;28;20271;-62
2021/05/28 00:11:31;;;;;;;3.40;2.10;;;;;;;;;;5088890;28;20172;-62
2021/05/28 00:13:57;;;;;;;2.63;2.00;;;;;;;;;;5089220;28;20256;-63
2021/05/28 00:16:25;;;;;;;1.90;1.60;;;;;;;;;;5071137;28;20584;-62
2021/05/28 00:18:51;;;;;;;2.97;1.87;;;;;;;;;;5086934;28;20225;-64
2021/05/28 00:21:17;;;;;;;2.00;1.90;;;;;;;;;;5071660;28;20204;-65
2021/05/28 00:23:43;;;;;;;4.50;2.10;;;;;;;;;;5089719;28;20674;-63
2021/05/28 00:26:10;;;;;;;5.23;2.57;;;;;;;;;;5070811;28;20203;-62
2021/05/28 00:28:36;;;;;;;3.23;2.00;;;;;;;;;;5089537;28;20175;-62
2021/05/28 00:31:02;;;;;;;3.13;2.23;;;;;;;;;;5090236;28;20183;-61
2021/05/28 00:33:28;;;;;;;3.43;2.17;;;;;;;;;;5095633;28;20501;-63
2021/05/28 00:35:54;;;;;;;2.63;2.10;;;;;;;;;;5093172;28;20195;-62
2021/05/28 00:38:20;;;;;;;2.73;2.40;;;;;;;;;;5088731;28;20225;-62
2021/05/28 00:40:46;;;;;;;3.07;2.50;;;;;;;;;;5070436;28;20179;-62
2021/05/28 00:43:12;;;;;;;3.53;2.27;;;;;;;;;;5089844;28;20217;-62
2021/05/28 00:45:38;;;;;;;2.80;2.13;;;;;;;;;;5088862;28;20175;-63
2021/05/28 00:48:05;;;;;;;2.30;2.10;;;;;;;;;;5089130;28;20188;-62
2021/05/28 00:50:31;;;;;;;4.83;2.00;;;;;;;;;;5089226;28;20255;-62
2021/05/28 00:52:58;;;;;;;3.63;2.00;;;;;;;;;;5088852;28;20253;-62
2021/05/28 00:55:25;;;;;;;2.63;2.10;;;;;;;;;;5069624;28;20266;-63
2021/05/28 00:57:53;;;;;;;2.50;2.20;;;;;;;;;;5081828;28;20233;-62
2021/05/28 01:00:19;;;;;;;2.70;2.10;;;;;;;;;;5070959;28;20183;-62
2021/05/28 01:02:45;;;;;;;2.03;1.87;;;;;;;;;;5089400;28;20665;-62
2021/05/28 01:05:11;;;;;;;2.90;2.20;;;;;;;;;;5088491;28;20187;-62
2021/05/28 01:07:37;;;;;;;3.73;2.90;;;;;;;;;;5091712;28;20237;-63
2021/05/28 01:10:04;;;;;;;2.63;2.07;;;;;;;;;;5089208;28;20207;-62
2021/05/28 01:12:30;;;;;;;3.27;2.07;;;;;;;;;;5081555;28;20607;-62
2021/05/28 01:14:56;;;;;;;2.37;1.70;;;;;;;;;;5080645;28;20257;-62
2021/05/28 01:17:22;;;;;;;4.97;2.17;;;;;;;;;;5077249;28;20176;-63
2021/05/28 01:19:48;;;;;;;2.63;1.83;;;;;;;;;;5072369;28;20184;-62
2021/05/28 01:22:18;;;;;;;2.60;2.20;;;;;;;;;;5091535;28;20717;-62
2021/05/28 01:24:45;;;;;;;3.93;2.40;;;;;;;;;;5073262;28;20283;-61
2021/05/28 01:27:11;;;;;;;2.10;1.90;;;;;;;;;;5092919;28;20171;-61
2021/05/28 01:29:37;;;;;;;3.70;2.43;;;;;;;;;;5089494;28;20168;-62
2021/05/28 01:32:03;;;;;;;3.73;2.07;;;;;;;;;;5081856;28;20180;-63
2021/05/28 01:34:30;;;;;;;2.43;2.10;;;;;;;;;;5100069;28;20172;-62
2021/05/28 01:36:56;;;;;;;3.13;2.10;;;;;;;;;;5081202;28;20934;-62
2021/05/28 01:39:22;;;;;;;2.90;2.00;;;;;;;;;;5092155;28;20183;-62
2021/05/28 01:41:48;;;;;;;2.00;1.80;;;;;;;;;;5073389;28;20371;-62
2021/05/28 01:44:17;;;;;;;2.67;1.63;;;;;;;;;;5092807;28;20195;-62
2021/05/28 01:46:43;;;;;;;2.23;1.97;;;;;;;;;;5091519;28;20203;-62
2021/05/28 01:49:09;;;;;;;3.13;2.30;;;;;;;;;;5092141;28;20172;-63
2021/05/28 01:51:35;;;;;;;2.30;1.87;;;;;;;;;;5074344;28;20214;-62
2021/05/28 01:54:01;;;;;;;2.67;2.23;;;;;;;;;;5066494;28;20188;-62
2021/05/28 01:56:27;;;;;;;2.57;2.07;;;;;;;;;;5088250;28;20727;-62
2021/05/28 01:58:54;;;;;;;2.33;2.13;;;;;;;;;;5087676;28;20637;-62
2021/05/28 02:01:20;;;;;;;3.37;2.40;;;;;;;;;;5091368;28;20688;-62
2021/05/28 02:03:46;;;;;;;3.17;2.33;;;;;;;;;;5089320;28;20180;-62
2021/05/28 02:06:12;;;;;;;2.83;2.15;;;;;;;;;;5091496;28;20423;-62
2021/05/28 02:08:38;;;;;;;3.43;2.50;;;;;;;;;;5090916;28;20168;-62
2021/05/28 02:11:04;;;;;;;2.00;1.90;;;;;;;;;;5091522;28;20182;-63
2021/05/28 02:13:30;;;;;;;7.30;2.10;;;;;;;;;;5091719;28;20168;-62
2021/05/28 02:15:56;;;;;;;5.20;2.10;;;;;;;;;;5090575;28;20179;-63
2021/05/28 02:18:23;;;;;;;5.27;2.67;;;;;;;;;;5090172;28;20176;-62
2021/05/28 02:20:49;;;;;;;3.47;2.60;;;;;;;;;;5073206;28;20206;-62
2021/05/28 02:23:15;;;;;;;2.27;2.07;;;;;;;;;;5091162;28;20187;-63
2021/05/28 02:25:41;;;;;;;2.90;2.60;;;;;;;;;;5090766;28;20164;-62
2021/05/28 02:28:07;;;;;;;3.87;2.50;;;;;;;;;;5072572;28;20262;-62
2021/05/28 02:30:33;;;;;;;2.90;2.30;;;;;;;;;;5072719;28;20168;-62
2021/05/28 02:32:59;;;;;;;2.77;2.23;;;;;;;;;;5089631;28;20262;-65
2021/05/28 02:35:25;;;;;;;3.13;2.00;;;;;;;;;;5091066;28;20601;-63
2021/05/28 02:37:51;;;;;;;3.37;2.47;;;;;;;;;;5090653;28;20199;-62
2021/05/28 02:40:18;;;;;;;3.47;2.07;;;;;;;;;;5090891;28;20221;-63
2021/05/28 02:42:44;;;;;;;2.30;2.10;;;;;;;;;;5089158;28;20252;-62
2021/05/28 02:45:10;;;;;;;3.40;2.10;;;;;;;;;;5077171;28;20642;-64
2021/05/28 02:47:36;;;;;;;2.83;1.90;;;;;;;;;;5091689;28;20187;-64
2021/05/28 02:50:02;;;;;;;4.40;2.30;;;;;;;;;;5084715;28;20184;-63
2021/05/28 02:52:29;;;;;;;2.63;2.20;;;;;;;;;;5070185;28;20321;-62
2021/05/28 02:54:55;;;;;;;2.57;2.37;;;;;;;;;;5085383;28;20207;-64
2021/05/28 02:57:21;;;;;;;3.03;2.20;;;;;;;;;;5090538;28;20168;-62
2021/05/28 02:59:47;;;;;;;3.00;2.30;;;;;;;;;;5085730;28;20626;-63
2021/05/28 03:02:13;;;;;;;2.80;2.17;;;;;;;;;;5088166;28;20229;-63
2021/05/28 03:04:39;;;;;;;2.43;2.23;;;;;;;;;;5072139;28;20183;-63
2021/05/28 03:07:05;;;;;;;3.47;2.17;;;;;;;;;;5087699;28;20654;-64
2021/05/28 03:09:31;;;;;;;3.13;2.30;;;;;;;;;;5072514;28;20191;-62
2021/05/28 03:11:57;;;;;;;3.50;2.20;;;;;;;;;;5090726;28;20523;-63
2021/05/28 03:14:23;;;;;;;3.17;2.40;;;;;;;;;;5083278;28;20605;-65
2021/05/28 03:16:49;;;;;;;2.50;2.10;;;;;;;;;;5091413;28;20180;-63
2021/05/28 03:19:20;;;;;;;2.77;2.00;;;;;;;;;;5081840;28;20207;-63
2021/05/28 03:24:32;;;;;;;2.57;2.37;;;;;;;;;;5090334;28;20579;-63
2021/05/28 03:26:58;;;;;;;2.37;2.13;;;;;;;;;;5090056;28;20218;-63
2021/05/28 03:29:24;;;;;;;2.77;2.10;;;;;;;;;;5080344;28;20630;-63
2021/05/28 03:31:50;;;;;;;2.40;2.20;;;;;;;;;;5072163;28;20183;-63
2021/05/28 03:34:16;;;;;;;2.50;2.30;;;;;;;;;;5062971;28;20188;-63
2021/05/28 03:36:42;;;;;;;3.30;2.10;;;;;;;;;;5087789;28;20614;-63
2021/05/28 03:39:08;;;;;;;2.90;2.07;;;;;;;;;;5089100;28;20732;-63
2021/05/28 03:41:34;;;;;;;2.70;2.10;;;;;;;;;;5089164;28;20199;-63
2021/05/28 03:44:01;;;;;;;3.83;2.13;;;;;;;;;;5071240;28;20756;-64
2021/05/28 03:46:27;;;;;;;2.50;1.97;;;;;;;;;;5079053;28;20638;-63
2021/05/28 03:48:53;;;;;;;2.90;2.23;;;;;;;;;;5066096;28;20539;-63
2021/05/28 03:51:20;;;;;;;3.60;2.20;;;;;;;;;;5089907;28;20581;-63
2021/05/28 03:53:46;;;;;;;2.87;2.10;;;;;;;;;;5080243;28;20294;-63
2021/05/28 03:56:12;;;;;;;3.37;2.53;;;;;;;;;;5074127;28;20230;-63
2021/05/28 03:58:38;;;;;;;3.20;2.13;;;;;;;;;;5083644;28;20508;-62
2021/05/28 04:01:04;;;;;;;2.53;2.33;;;;;;;;;;5071164;28;20183;-62
2021/05/28 04:03:30;;;;;;;3.30;2.47;;;;;;;;;;5089737;28;20179;-62
2021/05/28 04:05:56;;;;;;;3.67;2.43;;;;;;;;;;5087280;28;20267;-62
2021/05/28 04:08:22;;;;;;;2.30;2.10;;;;;;;;;;5080852;28;20207;-62
2021/05/28 04:10:49;;;;;;;2.20;2.00;;;;;;;;;;5086392;28;20214;-62
2021/05/28 04:13:15;;;;;;;3.73;2.07;;;;;;;;;;5067576;28;20233;-62
2021/05/28 04:15:41;;;;;;;2.20;2.00;;;;;;;;;;5085197;28;20592;-62
2021/05/28 04:18:08;;;;;;;2.67;2.20;;;;;;;;;;5083112;28;20211;-62
2021/05/28 04:20:36;;;;;;;3.90;2.60;;;;;;;;;;5076927;28;20192;-64
2021/05/28 04:23:02;;;;;;;3.83;2.27;;;;;;;;;;5087633;28;20199;-62
2021/05/28 04:25:28;;;;;;;2.50;2.23;;;;;;;;;;5087988;28;20266;-64
2021/05/28 04:27:54;;;;;;;3.10;2.00;;;;;;;;;;5087688;28;20179;-62
2021/05/28 04:30:23;;;;;;;2.57;2.33;;;;;;;;;;5087779;28;20183;-62
2021/05/28 04:32:53;;;;;;;3.40;2.43;;;;;;;;;;5082278;28;20723;-62
2021/05/28 04:35:20;;;;;;;2.07;1.80;;;;;;;;;;5067497;28;20830;-62
2021/05/28 04:37:46;;;;;;;4.53;2.37;;;;;;;;;;5061115;28;20180;-62
2021/05/28 04:40:12;;;;;;;3.77;2.50;;;;;;;;;;5079652;28;20190;-62
2021/05/28 04:42:38;;;;;;;4.67;2.77;;;;;;;;;;5070315;28;20535;-62
2021/05/28 04:45:05;;;;;;;4.33;2.40;;;;;;;;;;5074848;28;20186;-62
2021/05/28 04:47:34;;;;;;;3.87;3.10;;;;;;;;;;5093363;28;20179;-62
2021/05/28 04:50:00;;;;;;;5.13;3.40;;;;;;;;;;5080022;28;20267;-62
2021/05/28 04:52:26;;;;;;;3.97;2.87;;;;;;;;;;5087597;28;20175;-62
2021/05/28 04:54:52;;;;;;;4.20;2.97;;;;;;;;;;5082776;28;20252;-62
2021/05/28 04:57:18;;;;;;;3.53;2.67;;;;;;;;;;5061892;28;20219;-62
2021/05/28 04:59:44;;;;;;;6.17;3.30;;;;;;;;;;5071946;28;20537;-61
2021/05/28 05:02:10;;;;;;;3.37;2.90;;;;;;;;;;5079376;28;20212;-61
2021/05/28 05:04:36;;;;;;;5.90;3.40;;;;;;;;;;5072499;28;20176;-61
2021/05/28 05:07:02;;;;;;;5.00;3.63;;;;;;;;;;5063583;28;20184;-61
2021/05/28 05:09:28;;;;;;;3.93;3.20;;;;;;;;;;5070360;28;20175;-64
2021/05/28 05:11:54;;;;;;;4.20;3.27;;;;;;;;;;5071487;28;20188;-61
2021/05/28 05:14:20;;;;;;;3.57;3.27;;;;;;;;;;5077335;28;20196;-62
2021/05/28 05:16:47;;;;;;;5.17;3.30;;;;;;;;;;5072356;28;20172;-61
2021/05/28 05:19:13;;;;;;;3.80;3.17;;;;;;;;;;5091277;28;20190;-62
2021/05/28 05:21:40;;;;;;;3.40;3.10;;;;;;;;;;5074084;28;20617;-62
2021/05/28 05:24:07;;;;;;;4.47;2.93;;;;;;;;;;5086244;28;20180;-61
2021/05/28 05:26:33;;;;;;;5.13;3.50;;;;;;;;;;5072935;28;20180;-62
2021/05/28 05:28:59;;;;;;;3.40;2.77;;;;;;;;;;5092526;28;20509;-62
2021/05/28 05:31:25;;;;;;;3.60;3.30;;;;;;;;;;5081970;28;20658;-61
2021/05/28 05:33:51;;;;;;;4.07;3.67;;;;;;;;;;5076221;28;20240;-62
2021/05/28 05:36:17;;;;;;;3.70;2.90;;;;;;;;;;5072277;28;20290;-62
2021/05/28 05:38:43;;;;;;;3.20;2.90;;;;;;;;;;5066707;28;20211;-62
2021/05/28 05:41:10;;;;;;;3.50;3.20;;;;;;;;;;5078266;28;20211;-62
2021/05/28 05:43:36;;;;;;;4.40;3.83;;;;;;;;;;5059779;28;20233;-62
2021/05/28 05:46:02;;;;;;;4.67;3.33;;;;;;;;;;5076741;28;20272;-61
2021/05/28 05:48:29;;;;;;;13.13;4.70;;;;;;;;;;5081472;28;20184;-62
2021/05/28 05:50:55;;;;;;;7.23;4.80;;;;;;;;;;5088827;28;20620;-62
2021/05/28 05:53:21;;;;;;;7.40;5.00;;;;;;;;;;5083533;28;20267;-62
2021/05/28 05:55:48;;;;;;;4.90;4.27;;;;;;;;;;5052323;28;20731;-62
2021/05/28 05:58:14;;;;;;;6.90;4.93;;;;;;;;;;5071416;28;20182;-62
2021/05/28 06:00:40;;;;;;;5.47;4.20;;;;;;;;;;5071458;28;20173;-62
2021/05/28 06:03:06;;;;;;;4.97;4.20;;;;;;;;;;5071694;28;20283;-62
2021/05/28 06:05:32;;;;;;;6.13;4.37;;;;;;;;;;5071123;28;20176;-62
2021/05/28 06:07:58;;;;;;;7.63;4.43;;;;;;;;;;5079104;28;20223;-62
2021/05/28 06:10:24;;;;;;;5.33;4.47;;;;;;;;;;5088020;28;20187;-62
2021/05/28 06:12:50;;;;;;;6.50;4.67;;;;;;;;;;5083835;28;20531;-62
2021/05/28 06:15:17;;;;;;;5.43;4.90;;;;;;;;;;5070649;28;20242;-62
2021/05/28 06:17:43;;;;;;;6.13;4.60;;;;;;;;;;5081110;28;20626;-61
2021/05/28 06:20:09;;;;;;;5.67;5.00;;;;;;;;;;5082910;28;20190;-62
2021/05/28 06:22:35;;;;;;;4.77;4.27;;;;;;;;;;5079384;28;20300;-61
2021/05/28 06:25:01;;;;;;;10.57;4.77;;;;;;;;;;5082830;28;20176;-61
2021/05/28 06:27:27;;;;;;;7.03;5.13;;;;;;;;;;5089645;28;20575;-62
2021/05/28 06:29:53;;;;;;;5.20;4.53;;;;;;;;;;5064396;28;20179;-63
2021/05/28 06:32:19;;;;;;;5.70;5.10;;;;;;;;;;5082571;28;20192;-62
2021/05/28 06:34:45;;;;;;;5.93;4.67;;;;;;;;;;5083350;28;20600;-61
2021/05/28 06:37:11;;;;;;;11.10;8.60;;;;;;;;;;5053152;28;20203;-64
2021/05/28 06:39:37;;;;;;;12.17;9.77;;;;;;;;;;5070189;28;20188;-65
2021/05/28 06:42:03;;;;;;;13.67;10.93;;;;;;;;;;5063473;28;20204;-65
2021/05/28 06:44:29;;;;;;;13.53;11.40;;;;;;;;;;5069930;28;20650;-64
2021/05/28 06:46:56;;;;;;;12.57;11.17;;;;;;;;;;5058665;28;20185;-64
2021/05/28 06:49:22;;;;;;;15.10;12.20;;;;;;;;;;5066137;28;20198;-64
2021/05/28 06:51:48;;;;;;;15.53;12.10;;;;;;;;;;5084959;28;20200;-64
2021/05/28 06:54:15;;;;;;;15.17;12.03;;;;;;;;;;5058530;28;20628;-66
2021/05/28 06:56:42;;;;;;;14.80;13.10;;;;;;;;;;5060355;28;20253;-64
2021/05/28 06:59:09;;;;;;;17.80;14.20;;;;;;;;;;5083807;28;20184;-64
2021/05/28 07:01:35;;;;;;;18.23;15.27;;;;;;;;;;5085434;28;20207;-64
2021/05/28 07:04:03;;;;;;;17.40;14.93;;;;;;;;;;5077806;28;20211;-64
2021/05/28 07:06:30;;;;;;;21.77;16.90;;;;;;;;;;5084103;28;20172;-63
2021/05/28 07:08:56;;;;;;;20.67;16.67;;;;;;;;;;5083116;28;20176;-64
2021/05/28 07:11:22;;;;;;;17.47;15.60;;;;;;;;;;5085390;28;20184;-64
2021/05/28 07:13:48;;;;;;;21.43;14.30;;;;;;;;;;5059500;28;20267;-63
2021/05/28 07:16:15;;;;;;;22.20;16.67;;;;;;;;;;5069616;28;20192;-64
2021/05/28 07:18:41;;;;;;;18.67;16.30;;;;;;;;;;5083589;28;20241;-64
2021/05/28 07:21:07;;;;;;;20.70;17.27;;;;;;;;;;5085769;28;20173;-63
2021/05/28 07:23:33;;;;;;;25.93;19.40;;;;;;;;;;5077661;28;20179;-63
2021/05/28 07:26:01;;;;;;;35.70;23.53;;;;;;;;;;5068775;28;20195;-63
2021/05/28 07:28:27;;;;;;;32.43;22.80;;;;;;;;;;5058642;28;20478;-63
2021/05/28 07:30:54;;;;;;;31.93;22.50;;;;;;;;;;5069540;28;20203;-63
2021/05/28 07:33:20;;;;;;;33.47;22.77;;;;;;;;;;5069721;28;20260;-65
2021/05/28 07:35:46;;;;;;;33.47;23.90;;;;;;;;;;5071987;28;20661;-64
2021/05/28 07:38:12;;;;;;;39.20;25.77;;;;;;;;;;5067137;28;20187;-63
2021/05/28 07:40:38;;;;;;;40.07;25.10;;;;;;;;;;5082362;28;20172;-63
2021/05/28 07:43:04;;;;;;;32.97;23.33;;;;;;;;;;5080583;28;20196;-63
2021/05/28 07:45:32;;;;;;;36.63;23.87;;;;;;;;;;5067862;28;20204;-64
2021/05/28 07:47:58;;;;;;;36.00;25.87;;;;;;;;;;5066766;28;20181;-64
2021/05/28 07:50:24;;;;;;;33.00;24.07;;;;;;;;;;5087656;28;20184;-63
2021/05/28 07:52:51;;;;;;;33.50;24.10;;;;;;;;;;5072813;28;20184;-64
2021/05/28 07:55:17;;;;;;;40.37;25.90;;;;;;;;;;5088319;28;20219;-63
2021/05/28 07:57:43;;;;;;;38.03;26.17;;;;;;;;;;5089622;28;20209;-63
2021/05/28 08:00:10;;;;;;;38.13;26.60;;;;;;;;;;5072892;28;20635;-63
2021/05/28 08:02:36;;;;;;;36.90;26.43;;;;;;;;;;5057344;28;20215;-63
2021/05/28 08:05:03;;;;;;;37.67;26.23;;;;;;;;;;5087816;28;20191;-63
2021/05/28 08:07:29;;;;;;;35.13;25.50;;;;;;;;;;5086369;28;20663;-63
2021/05/28 08:09:55;;;;;;;30.97;24.67;;;;;;;;;;5078147;28;20204;-64
2021/05/28 08:12:21;;;;;;;39.10;27.67;;;;;;;;;;5069034;28;20195;-66
2021/05/28 08:14:47;;;;;;;35.97;25.67;;;;;;;;;;5068702;28;20195;-63
2021/05/28 08:17:13;;;;;;;40.70;25.57;;;;;;;;;;5066437;28;20176;-64
2021/05/28 08:19:39;;;;;;;33.20;23.63;;;;;;;;;;5056784;28;20184;-64
2021/05/28 08:22:05;;;;;;;37.40;26.33;;;;;;;;;;5075108;28;20250;-63
2021/05/28 08:24:31;;;;;;;38.03;26.77;;;;;;;;;;5089500;28;20188;-63
2021/05/28 08:26:57;;;;;;;34.67;24.60;;;;;;;;;;5089472;28;20168;-64
2021/05/28 08:29:23;;;;;;;41.90;27.53;;;;;;;;;;5079053;28;20532;-64
2021/05/28 08:31:49;;;;;;;49.83;31.63;;;;;;;;;;5068800;28;20173;-64
2021/05/28 08:34:15;;;;;;;41.90;29.07;;;;;;;;;;5074607;28;20185;-63
2021/05/28 08:36:41;;;;;;;43.30;29.00;;;;;;;;;;5068727;28;20964;-65
2021/05/28 08:39:07;;;;;;;42.73;29.80;;;;;;;;;;5078745;28;20179;-63
2021/05/28 08:41:34;;;;;;;48.60;32.67;;;;;;;;;;5077699;28;20207;-63
2021/05/28 08:44:01;;;;;;;48.37;29.47;;;;;;;;;;5069045;28;20187;-63
2021/05/28 08:46:27;;;;;;;55.50;31.53;;;;;;;;;;5069582;28;20181;-63
2021/05/28 08:48:54;;;;;;;52.63;31.93;;;;;;;;;;5066331;28;20180;-64
2021/05/28 08:51:20;;;;;;;55.40;31.90;;;;;;;;;;5070512;28;20646;-64
2021/05/28 08:53:46;;;;;;;53.73;32.47;;;;;;;;;;5069763;28;20546;-63
2021/05/28 08:56:12;;;;;;;55.60;34.73;;;;;;;;;;5086611;28;20220;-64
2021/05/28 08:58:38;;;;;;;58.73;35.53;;;;;;;;;;5067910;28;20172;-63
2021/05/28 09:01:07;;;;;;;69.37;35.63;;;;;;;;;;5050361;28;20168;-64
2021/05/28 09:03:34;;;;;;;71.00;38.27;;;;;;;;;;5052099;28;20673;-65
2021/05/28 09:06:01;;;;;;;78.03;41.80;;;;;;;;;;5069573;28;20509;-64
2021/05/28 09:08:31;;;;;;;79.57;40.60;;;;;;;;;;5069574;28;20180;-64
2021/05/28 09:11:03;;;;;;;85.63;40.87;;;;;;;;;;5087942;28;20184;-64
2021/05/28 09:13:29;;;;;;;80.97;43.17;;;;;;;;;;5071328;28;20506;-63
2021/05/28 09:16:06;;;;;;;87.63;44.30;;;;;;;;;;5079294;28;20212;-63
2021/05/28 09:18:41;;;;;;;84.93;42.67;;;;;;;;;;5067215;28;20187;-64
2021/05/28 09:21:08;;;;;;;84.53;42.63;;;;;;;;;;5068274;28;20663;-64
2021/05/28 09:23:34;;;;;;;97.77;45.23;;;;;;;;;;5065037;28;20183;-63
2021/05/28 09:26:02;;;;;;;65.63;36.67;;;;;;;;;;5070619;28;20187;-63
2021/05/28 09:28:29;;;;;;;64.20;34.70;;;;;;;;;;5083227;28;20184;-63
2021/05/28 09:31:00;;;;;;;68.77;34.93;;;;;;;;;;5093018;28;20183;-64
2021/05/28 09:33:26;;;;;;;58.90;32.97;;;;;;;;;;5085957;28;20206;-64
2021/05/28 09:35:53;;;;;;;61.03;31.03;;;;;;;;;;5093061;28;20191;-64
2021/05/28 09:38:25;;;;;;;52.80;28.17;;;;;;;;;;5092413;28;20263;-63
2021/05/28 09:40:51;;;;;;;54.10;29.90;;;;;;;;;;5072318;28;20182;-64
2021/05/28 09:43:22;;;;;;;50.07;28.50;;;;;;;;;;5063318;28;20512;-63
2021/05/28 09:45:49;;;;;;;40.10;21.50;;;;;;;;;;5071435;28;20199;-63
2021/05/28 09:48:15;;;;;;;44.80;24.97;;;;;;;;;;5071896;28;20688;-64
2021/05/28 09:51:03;;;;;;;43.60;23.50;;;;;;;;;;5081835;28;20180;-64
2021/05/28 09:53:36;;;;;;;40.97;23.00;;;;;;;;;;5082675;28;20164;-64
2021/05/28 09:56:22;;;;;;;30.47;20.43;;;;;;;;;;5084074;28;20304;-64
2021/05/28 09:59:14;;;;;;;35.53;21.10;;;;;;;;;;5091755;28;20262;-64
2021/05/28 10:01:55;;;;;;;32.83;20.20;;;;;;;;;;5083030;28;20207;-64
2021/05/28 10:04:21;;;;;;;24.90;16.83;;;;;;;;;;5076340;28;20275;-63
2021/05/28 10:06:49;;;;;;;26.80;17.93;;;;;;;;;;5078403;28;20169;-64
2021/05/28 10:09:15;;;;;;;26.43;16.30;;;;;;;;;;5084812;28;20263;-64
2021/05/28 10:11:41;;;;;;;27.27;16.57;;;;;;;;;;5068755;28;20275;-64
2021/05/28 10:14:08;;;;;;;25.07;15.37;;;;;;;;;;5084202;28;20219;-64
2021/05/28 10:16:35;;;;;;;22.33;15.00;;;;;;;;;;5080802;28;20199;-65
2021/05/28 10:19:01;;;;;;;26.33;15.67;;;;;;;;;;5073535;28;20189;-64
2021/05/28 10:21:27;;;;;;;26.13;16.83;;;;;;;;;;5060065;28;20196;-65
2021/05/28 10:23:53;;;;;;;25.87;15.87;;;;;;;;;;5076462;28;20177;-66
2021/05/28 10:26:34;;;;;;;20.57;15.07;;;;;;;;;;5085148;28;20200;-63
2021/05/28 10:29:00;;;;;;;21.87;15.50;;;;;;;;;;5087824;28;20203;-64
2021/05/28 10:31:59;;;;;;;24.13;15.23;;;;;;;;;;5060874;28;20173;-64
2021/05/28 10:34:29;;;;;;;21.17;14.23;;;;;;;;;;5014888;28;20199;-65
2021/05/28 10:36:57;;;;;;;20.03;13.33;;;;;;;;;;5067205;28;20184;-65
2021/05/28 10:39:23;;;;;;;20.73;11.87;;;;;;;;;;5070380;28;20176;-67
2021/05/28 10:41:55;;;;;;;17.50;12.60;;;;;;;;;;5076278;28;20200;-64
2021/05/28 10:44:26;;;;;;;12.40;9.37;;;;;;;;;;5075369;28;20522;-64
2021/05/28 10:46:52;;;;;;;11.83;8.63;;;;;;;;;;5071784;28;20184;-64
2021/05/28 10:49:18;;;;;;;12.83;8.47;;;;;;;;;;5071094;28;20667;-67
2021/05/28 10:51:47;;;;;;;8.47;6.40;;;;;;;;;;5076339;28;20187;-65
2021/05/28 10:54:16;;;;;;;10.30;6.53;;;;;;;;;;5086689;28;20181;-67
2021/05/28 10:56:42;;;;;;;10.40;6.93;;;;;;;;;;5065054;28;20216;-64
2021/05/28 10:59:13;;;;;;;8.50;6.77;;;;;;;;;;5090775;28;20191;-65
2021/05/28 11:01:42;;;;;;;6.83;6.13;;;;;;;;;;5088275;28;20200;-65
2021/05/28 11:04:09;;;;;;;9.27;6.03;;;;;;;;;;5088272;28;20184;-67
2021/05/28 11:06:54;;;;;;;7.10;6.00;;;;;;;;;;5071409;28;20176;-64
2021/05/28 11:09:36;;;;;;;7.13;5.43;;;;;;;;;;5089993;28;20202;-65
2021/05/28 11:12:03;;;;;;;8.43;5.77;;;;;;;;;;5088586;28;20207;-66
2021/05/28 11:14:29;;;;;;;10.53;6.00;;;;;;;;;;5085038;28;20213;-65
2021/05/28 11:16:55;;;;;;;6.40;5.77;;;;;;;;;;5070295;28;20184;-64
2021/05/28 11:19:25;;;;;;;6.07;5.33;;;;;;;;;;5089188;28;21127;-65
2021/05/28 11:21:56;;;;;;;6.47;4.90;;;;;;;;;;5089304;28;20204;-65
2021/05/28 11:24:22;;;;;;;6.37;4.83;;;;;;;;;;5088943;28;20351;-67
2021/05/28 11:26:48;;;;;;;8.70;5.60;;;;;;;;;;5067871;28;20172;-65
2021/05/28 11:29:20;;;;;;;7.43;5.90;;;;;;;;;;5086547;28;20274;-68
2021/05/28 11:31:47;;;;;;;6.27;5.13;;;;;;;;;;5084407;28;20241;-66
2021/05/28 11:34:14;;;;;;;6.90;6.17;;;;;;;;;;5083419;28;20211;-66
2021/05/28 11:36:42;;;;;;;6.47;5.70;;;;;;;;;;5065999;28;20283;-65
2021/05/28 11:39:27;;;;;;;6.67;5.00;;;;;;;;;;5070901;28;20626;-65
2021/05/28 11:42:01;;;;;;;4.37;3.97;;;;;;;;;;5086142;28;20588;-65
2021/05/28 11:44:28;;;;;;;11.03;5.23;;;;;;;;;;5070032;28;20529;-66
2021/05/28 11:46:54;;;;;;;6.53;4.93;;;;;;;;;;5083644;28;20176;-68
2021/05/28 11:49:22;;;;;;;5.20;4.43;;;;;;;;;;5088102;28;20219;-66
2021/05/28 11:52:05;;;;;;;5.70;4.53;;;;;;;;;;5070708;28;20184;-66
2021/05/28 11:54:33;;;;;;;4.93;4.00;;;;;;;;;;5065059;28;20858;-66
2021/05/28 11:57:01;;;;;;;5.70;4.00;;;;;;;;;;5083081;28;20207;-67
2021/05/28 11:59:47;;;;;;;6.53;4.07;;;;;;;;;;5067481;28;20634;-68
2021/05/28 12:02:13;;;;;;;5.70;3.63;;;;;;;;;;5084691;28;20249;-66
2021/05/28 12:04:39;;;;;;;4.40;4.00;;;;;;;;;;5084060;28;20176;-68
2021/05/28 12:07:09;;;;;;;4.27;3.87;;;;;;;;;;5081597;28;20180;-67
2021/05/28 12:09:35;;;;;;;4.43;3.47;;;;;;;;;;5087314;28;20258;-68
2021/05/28 12:12:02;;;;;;;4.37;3.87;;;;;;;;;;5080220;28;20640;-69
2021/05/28 12:14:28;;;;;;;5.10;3.97;;;;;;;;;;5088339;28;20201;-66
2021/05/28 12:16:55;;;;;;;4.40;4.00;;;;;;;;;;5068146;28;21240;-66
2021/05/28 12:19:21;;;;;;;4.30;3.80;;;;;;;;;;5067812;28;20220;-67
2021/05/28 12:21:47;;;;;;;4.87;3.90;;;;;;;;;;5087445;28;20210;-68
2021/05/28 12:24:16;;;;;;;8.37;3.87;;;;;;;;;;5083751;28;20701;-69
2021/05/28 12:26:42;;;;;;;5.80;4.00;;;;;;;;;;5068990;28;20533;-68
2021/05/28 12:29:08;;;;;;;4.40;4.00;;;;;;;;;;5069493;28;20587;-68
2021/05/28 12:31:35;;;;;;;5.97;4.77;;;;;;;;;;5085998;28;20445;-69
2021/05/28 12:34:02;;;;;;;7.63;4.70;;;;;;;;;;5077893;28;20180;-68
2021/05/28 12:36:34;;;;;;;6.43;5.13;;;;;;;;;;5067113;28;20186;-68
2021/05/28 12:39:01;;;;;;;5.70;4.80;;;;;;;;;;5087143;28;20176;-70
2021/05/28 12:41:28;;;;;;;5.87;5.13;;;;;;;;;;5060615;28;20184;-68
2021/05/28 12:43:54;;;;;;;5.27;4.63;;;;;;;;;;5087739;28;20172;-68
2021/05/28 12:46:28;;;;;;;6.73;5.47;;;;;;;;;;5070911;28;20180;-69
2021/05/28 12:48:58;;;;;;;9.00;6.87;;;;;;;;;;5086398;28;20228;-68
2021/05/28 12:51:40;;;;;;;8.67;6.73;;;;;;;;;;5083097;28;20179;-68
2021/05/28 12:54:19;;;;;;;10.43;7.23;;;;;;;;;;5089168;28;20188;-68
2021/05/28 12:56:45;;;;;;;13.97;8.00;;;;;;;;;;5084284;28;20216;-69
2021/05/28 12:59:25;;;;;;;8.03;7.13;;;;;;;;;;5080417;28;20176;-68
2021/05/28 13:01:51;;;;;;;9.90;7.53;;;;;;;;;;5070466;28;20210;-68
2021/05/28 13:04:18;;;;;;;10.33;7.63;;;;;;;;;;5057237;28;20172;-68
2021/05/28 13:06:47;;;;;;;9.77;7.73;;;;;;;;;;5087429;28;20508;-68
2021/05/28 13:09:13;;;;;;;8.60;7.37;;;;;;;;;;5090883;28;20834;-68
2021/05/28 13:11:59;;;;;;;9.17;8.00;;;;;;;;;;5064580;28;20180;-68
2021/05/28 13:14:28;;;;;;;8.37;7.40;;;;;;;;;;5087780;28;20203;-71
2021/05/28 13:16:54;;;;;;;10.33;8.07;;;;;;;;;;5092491;28;20180;-68
2021/05/28 13:19:20;;;;;;;12.17;8.87;;;;;;;;;;5077697;28;20195;-69
2021/05/28 13:21:50;;;;;;;9.27;8.20;;;;;;;;;;5078347;28;20201;-70
2021/05/28 13:24:36;;;;;;;10.17;8.13;;;;;;;;;;5065750;28;20199;-69
2021/05/28 13:27:10;;;;;;;12.20;7.20;;;;;;;;;;5061731;28;20225;-68
2021/05/28 13:29:50;;;;;;;12.03;7.73;;;;;;;;;;5075503;28;20183;-70
2021/05/28 13:32:23;;;;;;;10.03;7.77;;;;;;;;;;5064951;28;20183;-68
2021/05/28 13:34:50;;;;;;;8.40;7.60;;;;;;;;;;5056892;28;20185;-69
2021/05/28 13:37:16;;;;;;;12.33;7.90;;;;;;;;;;5059921;28;20172;-69
2021/05/28 13:39:42;;;;;;;11.73;8.73;;;;;;;;;;5074234;28;20638;-70
2021/05/28 13:42:08;;;;;;;9.63;8.03;;;;;;;;;;5073393;28;20200;-68
2021/05/28 13:44:35;;;;;;;8.80;7.73;;;;;;;;;;5065987;28;20172;-68
2021/05/28 13:47:02;;;;;;;10.93;8.00;;;;;;;;;;5066076;28;20282;-68
2021/05/28 13:49:28;;;;;;;10.03;8.23;;;;;;;;;;5092325;28;20271;-68
2021/05/28 13:51:54;;;;;;;9.17;8.17;;;;;;;;;;5062344;28;20180;-68
2021/05/28 13:54:20;;;;;;;9.97;8.03;;;;;;;;;;5074303;28;20238;-69
2021/05/28 13:56:46;;;;;;;9.17;7.57;;;;;;;;;;5077508;28;20717;-68
2021/05/28 13:59:12;;;;;;;10.77;7.70;;;;;;;;;;5081240;28;20763;-68
2021/05/28 14:01:38;;;;;;;8.87;7.33;;;;;;;;;;5055754;28;20207;-68
2021/05/28 14:04:04;;;;;;;7.53;6.73;;;;;;;;;;5082688;28;20172;-69
2021/05/28 14:06:30;;;;;;;8.10;6.53;;;;;;;;;;5089639;28;20747;-68
2021/05/28 14:08:56;;;;;;;6.07;5.30;;;;;;;;;;5081820;28;20246;-69
2021/05/28 14:11:22;;;;;;;6.70;5.77;;;;;;;;;;5071461;28;20260;-68
2021/05/28 14:13:48;;;;;;;12.77;6.73;;;;;;;;;;5056996;28;20224;-69
2021/05/28 14:16:14;;;;;;;7.87;4.40;;;;;;;;;;5091918;28;20254;-68
2021/05/28 14:18:41;;;;;;;14.33;5.33;;;;;;;;;;5070997;28;20168;-66
2021/05/28 14:21:07;;;;;;;17.02;6.47;;;;;;;;;;5070107;28;20421;-65
2021/05/28 14:23:37;;;;;;;33.17;8.27;;;;;;;;;;5062298;28;20192;-66
2021/05/28 14:26:03;;;;;;;28.90;7.33;;;;;;;;;;5064176;28;20174;-69
2021/05/28 14:28:29;;;;;;;51.73;8.63;;;;;;;;;;5087049;28;20530;-69
2021/05/28 14:30:55;;;;;;;23.13;5.10;;;;;;;;;;5070428;28;20490;-71
2021/05/28 14:33:33;;;;;;;22.60;6.00;;;;;;;;;;5086868;28;20254;-70
2021/05/28 14:35:59;;;;;;;18.93;5.63;;;;;;;;;;5066887;28;20191;-69
2021/05/28 14:38:25;;;;;;;18.90;5.00;;;;;;;;;;5066702;28;20566;-70